sensor_id;sensor_type;location;lat;lon;timestamp;pressure;altitude;pressure_sealevel;temperature;humidity
9423;BME280;4750;49.506;10.400;2022-07-04T00:00:08;98069.88;;;16.08;73.75
9423;BME280;4750;49.506;10.400;2022-07-04T00:02:52;98060.44;;;15.95;73.82
9423;BME280;4750;49.506;10.400;2022-07-04T00:05:37;98071.19;;;16.07;74.10
9423;BME280;4750;49.506;10.400;2022-07-04T00:08:21;98098.78;;;16.16;74.14
9423;BME280;4750;49.506;10.400;2022-07-04T00:11:05;98085.72;;;16.21;74.17
9423;BME280;4750;49.506;10.400;2022-07-04T00:13:49;98093.16;;;16.26;74.16
9423;BME280;4750;49.506;10.400;2022-07-04T00:16:33;98072.25;;;16.11;73.93
9423;BME280;4750;49.506;10.400;2022-07-04T00:19:18;98096.75;;;16.26;74.05
9423;BME280;4750;49.506;10.400;2022-07-04T00:22:02;98052.69;;;15.96;73.97
9423;BME280;4750;49.506;10.400;2022-07-04T00:24:46;98085.44;;;16.26;73.94
9423;BME280;4750;49.506;10.400;2022-07-04T00:27:30;98058.81;;;16.02;73.52
9423;BME280;4750;49.506;10.400;2022-07-04T00:30:14;98109.00;;;16.39;72.57
9423;BME280;4750;49.506;10.400;2022-07-04T00:32:58;98072.28;;;16.21;71.85
9423;BME280;4750;49.506;10.400;2022-07-04T00:35:42;98087.38;;;16.33;71.39
9423;BME280;4750;49.506;10.400;2022-07-04T00:38:26;98080.66;;;16.39;70.93
9423;BME280;4750;49.506;10.400;2022-07-04T00:41:10;98055.75;;;16.17;70.50
9423;BME280;4750;49.506;10.400;2022-07-04T00:44:04;98102.97;;;16.62;70.38
9423;BME280;4750;49.506;10.400;2022-07-04T00:46:49;98091.00;;;16.53;70.04
9423;BME280;4750;49.506;10.400;2022-07-04T00:49:34;98083.69;;;16.50;70.00
9423;BME280;4750;49.506;10.400;2022-07-04T00:52:19;98107.75;;;16.69;69.67
9423;BME280;4750;49.506;10.400;2022-07-04T00:55:04;98088.88;;;16.44;69.37
9423;BME280;4750;49.506;10.400;2022-07-04T00:57:48;98045.16;;;16.18;69.58
9423;BME280;4750;49.506;10.400;2022-07-04T01:00:32;98091.44;;;16.60;69.31
9423;BME280;4750;49.506;10.400;2022-07-04T01:03:16;98081.03;;;16.62;68.99
9423;BME280;4750;49.506;10.400;2022-07-04T01:06:00;98069.53;;;16.60;68.66
9423;BME280;4750;49.506;10.400;2022-07-04T01:08:45;98106.31;;;16.97;68.60
9423;BME280;4750;49.506;10.400;2022-07-04T01:11:29;98074.03;;;16.73;68.24
9423;BME280;4750;49.506;10.400;2022-07-04T01:14:13;98085.22;;;16.81;67.74
9423;BME280;4750;49.506;10.400;2022-07-04T01:16:57;98073.16;;;16.80;67.59
9423;BME280;4750;49.506;10.400;2022-07-04T01:19:41;98069.56;;;16.70;67.84
9423;BME280;4750;49.506;10.400;2022-07-04T01:22:25;98078.06;;;16.70;68.40
9423;BME280;4750;49.506;10.400;2022-07-04T01:25:09;98075.66;;;16.57;68.81
9423;BME280;4750;49.506;10.400;2022-07-04T01:27:53;98085.66;;;16.67;68.86
9423;BME280;4750;49.506;10.400;2022-07-04T01:30:37;98095.69;;;16.88;68.76
9423;BME280;4750;49.506;10.400;2022-07-04T01:33:22;98063.38;;;16.44;68.73
9423;BME280;4750;49.506;10.400;2022-07-04T01:36:06;98088.94;;;16.64;68.81
9423;BME280;4750;49.506;10.400;2022-07-04T01:38:50;98076.53;;;16.49;68.78
9423;BME280;4750;49.506;10.400;2022-07-04T01:41:34;98120.91;;;16.94;68.82
9423;BME280;4750;49.506;10.400;2022-07-04T01:44:20;98057.72;;;16.44;68.61
9423;BME280;4750;49.506;10.400;2022-07-04T01:47:04;98053.06;;;16.20;69.11
9423;BME280;4750;49.506;10.400;2022-07-04T01:49:49;98073.50;;;16.28;69.63
9423;BME280;4750;49.506;10.400;2022-07-04T01:52:33;98070.03;;;16.20;69.95
9423;BME280;4750;49.506;10.400;2022-07-04T01:55:18;98064.09;;;16.25;69.78
9423;BME280;4750;49.506;10.400;2022-07-04T01:58:02;98114.28;;;16.62;69.41
9423;BME280;4750;49.506;10.400;2022-07-04T02:00:46;98075.78;;;16.39;69.34
9423;BME280;4750;49.506;10.400;2022-07-04T02:03:49;98070.97;;;16.32;69.13
9423;BME280;4750;49.506;10.400;2022-07-04T02:06:33;98055.16;;;16.19;68.89
9423;BME280;4750;49.506;10.400;2022-07-04T02:09:18;98094.28;;;16.40;68.87
9423;BME280;4750;49.506;10.400;2022-07-04T02:12:03;98046.81;;;16.21;69.23
9423;BME280;4750;49.506;10.400;2022-07-04T02:15:07;98078.56;;;16.29;69.03
9423;BME280;4750;49.506;10.400;2022-07-04T02:17:51;98074.84;;;16.27;69.35
9423;BME280;4750;49.506;10.400;2022-07-04T02:20:36;98091.41;;;16.30;69.63
9423;BME280;4750;49.506;10.400;2022-07-04T02:23:20;98124.69;;;16.49;69.68
9423;BME280;4750;49.506;10.400;2022-07-04T02:26:04;98093.25;;;16.08;69.78
9423;BME280;4750;49.506;10.400;2022-07-04T02:28:48;98046.84;;;15.57;70.09
9423;BME280;4750;49.506;10.400;2022-07-04T02:31:32;98114.41;;;16.07;70.36
9423;BME280;4750;49.506;10.400;2022-07-04T02:34:16;98066.06;;;15.86;70.43
9423;BME280;4750;49.506;10.400;2022-07-04T02:37:00;98097.41;;;16.07;70.23
9423;BME280;4750;49.506;10.400;2022-07-04T02:39:44;98128.50;;;16.25;70.44
9423;BME280;4750;49.506;10.400;2022-07-04T02:42:29;98089.06;;;15.72;70.73
9423;BME280;4750;49.506;10.400;2022-07-04T02:45:14;98120.84;;;15.80;71.08
9423;BME280;4750;49.506;10.400;2022-07-04T02:47:58;98117.19;;;15.70;71.41
9423;BME280;4750;49.506;10.400;2022-07-04T02:50:42;98161.16;;;15.98;71.71
9423;BME280;4750;49.506;10.400;2022-07-04T02:53:25;98129.88;;;15.52;72.42
9423;BME280;4750;49.506;10.400;2022-07-04T02:56:09;98067.97;;;15.11;72.55
9423;BME280;4750;49.506;10.400;2022-07-04T02:58:53;98162.13;;;15.66;72.78
9423;BME280;4750;49.506;10.400;2022-07-04T03:01:38;98106.97;;;15.12;72.89
9423;BME280;4750;49.506;10.400;2022-07-04T03:04:22;98140.31;;;15.31;73.37
9423;BME280;4750;49.506;10.400;2022-07-04T03:07:07;98145.72;;;15.20;73.68
9423;BME280;4750;49.506;10.400;2022-07-04T03:09:51;98163.50;;;15.30;74.00
9423;BME280;4750;49.506;10.400;2022-07-04T03:12:35;98167.66;;;15.29;74.14
9423;BME280;4750;49.506;10.400;2022-07-04T03:15:19;98144.72;;;15.07;74.05
9423;BME280;4750;49.506;10.400;2022-07-04T03:18:03;98127.59;;;14.88;74.40
9423;BME280;4750;49.506;10.400;2022-07-04T03:20:47;98109.38;;;14.63;74.59
9423;BME280;4750;49.506;10.400;2022-07-04T03:23:32;98197.19;;;15.36;74.83
9423;BME280;4750;49.506;10.400;2022-07-04T03:26:16;98197.28;;;15.28;75.16
9423;BME280;4750;49.506;10.400;2022-07-04T03:29:01;98203.75;;;15.21;75.28
9423;BME280;4750;49.506;10.400;2022-07-04T03:31:45;98169.97;;;14.88;75.41
9423;BME280;4750;49.506;10.400;2022-07-04T03:34:29;98199.28;;;15.18;75.76
9423;BME280;4750;49.506;10.400;2022-07-04T03:37:13;98202.59;;;15.06;75.67
9423;BME280;4750;49.506;10.400;2022-07-04T03:39:57;98160.81;;;14.79;75.76
9423;BME280;4750;49.506;10.400;2022-07-04T03:42:41;98190.34;;;15.04;75.87
9423;BME280;4750;49.506;10.400;2022-07-04T03:45:25;98221.00;;;15.32;75.80
9423;BME280;4750;49.506;10.400;2022-07-04T03:48:09;98173.97;;;15.02;75.84
9423;BME280;4750;49.506;10.400;2022-07-04T03:50:53;98191.78;;;15.12;75.79
9423;BME280;4750;49.506;10.400;2022-07-04T03:53:37;98206.41;;;15.36;75.62
9423;BME280;4750;49.506;10.400;2022-07-04T03:56:21;98212.66;;;15.35;75.44
9423;BME280;4750;49.506;10.400;2022-07-04T03:59:04;98225.38;;;15.43;75.57
9423;BME280;4750;49.506;10.400;2022-07-04T04:01:49;98227.97;;;15.49;75.54
9423;BME280;4750;49.506;10.400;2022-07-04T04:04:32;98183.88;;;15.11;75.37
9423;BME280;4750;49.506;10.400;2022-07-04T04:07:35;98234.72;;;15.54;75.33
9423;BME280;4750;49.506;10.400;2022-07-04T04:10:19;98191.28;;;15.24;75.54
9423;BME280;4750;49.506;10.400;2022-07-04T04:13:03;98205.34;;;15.31;75.53
9423;BME280;4750;49.506;10.400;2022-07-04T04:15:47;98238.88;;;15.53;75.51
9423;BME280;4750;49.506;10.400;2022-07-04T04:18:31;98233.38;;;15.55;75.68
9423;BME280;4750;49.506;10.400;2022-07-04T04:21:15;98237.31;;;15.59;75.66
9423;BME280;4750;49.506;10.400;2022-07-04T04:23:59;98232.19;;;15.58;75.58
9423;BME280;4750;49.506;10.400;2022-07-04T04:26:43;98259.69;;;15.82;75.63
9423;BME280;4750;49.506;10.400;2022-07-04T04:29:27;98220.16;;;15.57;75.57
9423;BME280;4750;49.506;10.400;2022-07-04T04:32:11;98230.69;;;15.74;75.54
9423;BME280;4750;49.506;10.400;2022-07-04T04:34:57;98242.53;;;15.98;75.30
9423;BME280;4750;49.506;10.400;2022-07-04T04:37:41;98254.06;;;16.10;75.26
9423;BME280;4750;49.506;10.400;2022-07-04T04:40:25;98253.41;;;16.01;75.02
9423;BME280;4750;49.506;10.400;2022-07-04T04:43:09;98239.84;;;16.00;75.22
9423;BME280;4750;49.506;10.400;2022-07-04T04:45:53;98226.72;;;15.95;75.09
9423;BME280;4750;49.506;10.400;2022-07-04T04:48:37;98218.03;;;15.93;74.88
9423;BME280;4750;49.506;10.400;2022-07-04T04:51:21;98243.97;;;16.16;74.59
9423;BME280;4750;49.506;10.400;2022-07-04T04:54:05;98260.59;;;16.30;74.39
9423;BME280;4750;49.506;10.400;2022-07-04T04:56:49;98247.31;;;16.32;74.23
9423;BME280;4750;49.506;10.400;2022-07-04T04:59:35;98252.34;;;16.51;73.94
9423;BME280;4750;49.506;10.400;2022-07-04T05:02:18;98197.59;;;16.12;73.95
9423;BME280;4750;49.506;10.400;2022-07-04T05:05:02;98263.75;;;16.71;73.78
9423;BME280;4750;49.506;10.400;2022-07-04T05:07:47;98250.78;;;16.68;73.67
9423;BME280;4750;49.506;10.400;2022-07-04T05:10:31;98273.53;;;16.87;73.36
9423;BME280;4750;49.506;10.400;2022-07-04T05:13:15;98270.38;;;16.83;73.44
9423;BME280;4750;49.506;10.400;2022-07-04T05:15:59;98251.94;;;16.92;73.43
9423;BME280;4750;49.506;10.400;2022-07-04T05:18:43;98261.31;;;17.71;72.94
9423;BME280;4750;49.506;10.400;2022-07-04T05:21:27;98238.47;;;18.49;69.92
9423;BME280;4750;49.506;10.400;2022-07-04T05:24:12;98252.06;;;18.92;66.91
9423;BME280;4750;49.506;10.400;2022-07-04T05:26:56;98256.88;;;19.21;65.59
9423;BME280;4750;49.506;10.400;2022-07-04T05:29:40;98286.59;;;20.28;64.00
9423;BME280;4750;49.506;10.400;2022-07-04T05:32:27;98270.72;;;21.67;59.78
9423;BME280;4750;49.506;10.400;2022-07-04T05:35:11;98284.44;;;23.55;55.03
9423;BME280;4750;49.506;10.400;2022-07-04T05:37:55;98267.16;;;23.83;50.66
9423;BME280;4750;49.506;10.400;2022-07-04T05:40:39;98274.72;;;24.36;48.92
9423;BME280;4750;49.506;10.400;2022-07-04T05:43:23;98288.06;;;24.45;47.80
9423;BME280;4750;49.506;10.400;2022-07-04T05:46:08;98273.25;;;24.51;47.15
9423;BME280;4750;49.506;10.400;2022-07-04T05:48:53;98274.28;;;23.82;48.46
9423;BME280;4750;49.506;10.400;2022-07-04T05:51:37;98279.72;;;24.35;47.82
9423;BME280;4750;49.506;10.400;2022-07-04T05:54:21;98267.00;;;25.52;46.15
9423;BME280;4750;49.506;10.400;2022-07-04T05:57:04;98268.41;;;26.59;43.78
9423;BME280;4750;49.506;10.400;2022-07-04T05:59:49;98264.16;;;26.80;41.45
9423;BME280;4750;49.506;10.400;2022-07-04T06:02:33;98274.47;;;27.68;40.54
9423;BME280;4750;49.506;10.400;2022-07-04T06:05:17;98293.13;;;28.31;39.28
9423;BME280;4750;49.506;10.400;2022-07-04T06:08:01;98296.59;;;28.28;38.83
9423;BME280;4750;49.506;10.400;2022-07-04T06:10:46;98257.44;;;28.45;38.57
9423;BME280;4750;49.506;10.400;2022-07-04T06:13:30;98276.97;;;28.22;38.22
9423;BME280;4750;49.506;10.400;2022-07-04T06:16:14;98285.91;;;27.44;40.21
9423;BME280;4750;49.506;10.400;2022-07-04T06:18:58;98292.06;;;28.21;38.63
9423;BME280;4750;49.506;10.400;2022-07-04T06:21:42;98271.31;;;27.60;39.44
9423;BME280;4750;49.506;10.400;2022-07-04T06:24:26;98287.00;;;27.14;40.24
9423;BME280;4750;49.506;10.400;2022-07-04T06:27:10;98290.53;;;26.55;41.00
9423;BME280;4750;49.506;10.400;2022-07-04T06:29:54;98278.09;;;25.10;44.19
9423;BME280;4750;49.506;10.400;2022-07-04T06:32:49;98297.66;;;26.16;42.60
9423;BME280;4750;49.506;10.400;2022-07-04T06:35:34;98307.75;;;27.31;40.99
9423;BME280;4750;49.506;10.400;2022-07-04T06:38:38;98282.47;;;26.69;40.91
9423;BME280;4750;49.506;10.400;2022-07-04T06:41:22;98305.75;;;25.51;42.97
9423;BME280;4750;49.506;10.400;2022-07-04T06:44:06;98288.50;;;24.85;44.28
9423;BME280;4750;49.506;10.400;2022-07-04T06:46:50;98289.44;;;23.98;46.10
9423;BME280;4750;49.506;10.400;2022-07-04T06:49:34;98302.56;;;23.32;48.28
9423;BME280;4750;49.506;10.400;2022-07-04T06:52:18;98298.41;;;23.49;49.25
9423;BME280;4750;49.506;10.400;2022-07-04T06:55:02;98316.09;;;24.47;47.21
9423;BME280;4750;49.506;10.400;2022-07-04T06:57:46;98279.19;;;24.39;46.82
9423;BME280;4750;49.506;10.400;2022-07-04T07:00:30;98274.38;;;25.91;44.43
9423;BME280;4750;49.506;10.400;2022-07-04T07:03:14;98236.97;;;26.45;42.33
9423;BME280;4750;49.506;10.400;2022-07-04T07:05:58;98247.63;;;27.21;41.82
9423;BME280;4750;49.506;10.400;2022-07-04T07:08:42;98274.16;;;25.51;42.71
9423;BME280;4750;49.506;10.400;2022-07-04T07:11:27;98279.28;;;25.37;44.29
9423;BME280;4750;49.506;10.400;2022-07-04T07:14:11;98271.56;;;25.93;44.37
9423;BME280;4750;49.506;10.400;2022-07-04T07:16:55;98278.31;;;26.36;44.07
9423;BME280;4750;49.506;10.400;2022-07-04T07:19:39;98283.66;;;26.82;42.45
9423;BME280;4750;49.506;10.400;2022-07-04T07:22:23;98241.81;;;25.87;42.67
9423;BME280;4750;49.506;10.400;2022-07-04T07:25:11;98269.56;;;26.52;42.95
9423;BME280;4750;49.506;10.400;2022-07-04T07:27:55;98274.44;;;26.86;41.44
9423;BME280;4750;49.506;10.400;2022-07-04T07:30:39;98288.63;;;27.00;42.20
9423;BME280;4750;49.506;10.400;2022-07-04T07:33:23;98288.06;;;25.75;44.02
9423;BME280;4750;49.506;10.400;2022-07-04T07:36:07;98270.28;;;25.29;44.40
9423;BME280;4750;49.506;10.400;2022-07-04T07:38:51;98236.41;;;25.59;45.31
9423;BME280;4750;49.506;10.400;2022-07-04T07:41:37;98237.69;;;25.38;44.70
9423;BME280;4750;49.506;10.400;2022-07-04T07:44:21;98259.81;;;24.85;45.43
9423;BME280;4750;49.506;10.400;2022-07-04T07:47:05;98253.81;;;25.29;46.05
9423;BME280;4750;49.506;10.400;2022-07-04T07:49:49;98260.13;;;24.46;46.37
9423;BME280;4750;49.506;10.400;2022-07-04T07:52:33;98278.78;;;24.31;47.56
9423;BME280;4750;49.506;10.400;2022-07-04T07:55:17;98243.25;;;23.62;47.86
9423;BME280;4750;49.506;10.400;2022-07-04T07:58:01;98242.66;;;23.80;47.41
9423;BME280;4750;49.506;10.400;2022-07-04T08:00:46;98279.16;;;23.93;48.13
9423;BME280;4750;49.506;10.400;2022-07-04T08:03:30;98274.97;;;24.10;48.01
9423;BME280;4750;49.506;10.400;2022-07-04T08:06:33;98256.13;;;23.91;47.60
9423;BME280;4750;49.506;10.400;2022-07-04T08:09:17;98235.22;;;23.88;47.61
9423;BME280;4750;49.506;10.400;2022-07-04T08:12:03;98253.72;;;23.71;48.07
9423;BME280;4750;49.506;10.400;2022-07-04T08:14:47;98251.56;;;24.16;48.07
9423;BME280;4750;49.506;10.400;2022-07-04T08:17:32;98260.78;;;24.44;47.79
9423;BME280;4750;49.506;10.400;2022-07-04T08:20:16;98262.88;;;24.44;46.88
9423;BME280;4750;49.506;10.400;2022-07-04T08:23:00;98244.53;;;24.19;47.04
9423;BME280;4750;49.506;10.400;2022-07-04T08:25:44;98252.91;;;24.29;47.17
9423;BME280;4750;49.506;10.400;2022-07-04T08:28:29;98249.78;;;24.54;47.08
9423;BME280;4750;49.506;10.400;2022-07-04T08:31:13;98191.81;;;24.10;46.72
9423;BME280;4750;49.506;10.400;2022-07-04T08:33:57;98258.50;;;24.72;46.52
9423;BME280;4750;49.506;10.400;2022-07-04T08:36:41;98244.75;;;24.55;47.36
9423;BME280;4750;49.506;10.400;2022-07-04T08:39:25;98241.47;;;24.77;46.55
9423;BME280;4750;49.506;10.400;2022-07-04T08:42:13;98239.81;;;24.71;45.84
9423;BME280;4750;49.506;10.400;2022-07-04T08:45:00;98170.72;;;24.19;46.38
9423;BME280;4750;49.506;10.400;2022-07-04T08:47:48;98244.88;;;24.57;46.02
9423;BME280;4750;49.506;10.400;2022-07-04T08:50:49;98237.78;;;24.74;45.77
9423;BME280;4750;49.506;10.400;2022-07-04T08:53:37;98228.56;;;24.46;45.89
9423;BME280;4750;49.506;10.400;2022-07-04T08:56:22;98230.97;;;24.51;45.56
9423;BME280;4750;49.506;10.400;2022-07-04T08:59:25;98220.78;;;25.12;45.31
9423;BME280;4750;49.506;10.400;2022-07-04T09:02:09;98229.13;;;25.40;43.56
9423;BME280;4750;49.506;10.400;2022-07-04T09:04:54;98246.03;;;25.16;44.06
9423;BME280;4750;49.506;10.400;2022-07-04T09:07:38;98238.88;;;24.83;44.80
9423;BME280;4750;49.506;10.400;2022-07-04T09:10:22;98231.47;;;24.78;45.30
9423;BME280;4750;49.506;10.400;2022-07-04T09:13:08;98246.44;;;24.92;44.77
9423;BME280;4750;49.506;10.400;2022-07-04T09:15:52;98233.09;;;24.99;44.40
9423;BME280;4750;49.506;10.400;2022-07-04T09:18:37;98250.91;;;25.45;44.59
9423;BME280;4750;49.506;10.400;2022-07-04T09:21:23;98227.78;;;25.95;43.80
9423;BME280;4750;49.506;10.400;2022-07-04T09:24:49;98226.63;;;25.84;42.77
9423;BME280;4750;49.506;10.400;2022-07-04T09:27:35;98228.78;;;26.20;42.68
9423;BME280;4750;49.506;10.400;2022-07-04T09:30:25;98191.97;;;25.62;41.93
9423;BME280;4750;49.506;10.400;2022-07-04T09:33:09;98236.41;;;25.59;42.42
9423;BME280;4750;49.506;10.400;2022-07-04T09:35:53;98132.75;;;24.85;41.84
9423;BME280;4750;49.506;10.400;2022-07-04T09:38:37;98258.41;;;25.88;40.46
9423;BME280;4750;49.506;10.400;2022-07-04T09:41:21;98231.88;;;25.90;39.58
9423;BME280;4750;49.506;10.400;2022-07-04T09:44:19;98225.16;;;26.01;39.97
9423;BME280;4750;49.506;10.400;2022-07-04T09:47:39;98237.22;;;26.72;38.61
9423;BME280;4750;49.506;10.400;2022-07-04T09:50:25;98246.91;;;26.80;39.78
9423;BME280;4750;49.506;10.400;2022-07-04T09:53:10;98255.19;;;26.90;39.60
9423;BME280;4750;49.506;10.400;2022-07-04T09:55:54;98262.56;;;26.75;39.73
9423;BME280;4750;49.506;10.400;2022-07-04T09:58:38;98221.16;;;26.08;40.51
9423;BME280;4750;49.506;10.400;2022-07-04T10:01:22;98213.03;;;26.41;41.25
9423;BME280;4750;49.506;10.400;2022-07-04T10:04:07;98252.59;;;26.40;40.63
9423;BME280;4750;49.506;10.400;2022-07-04T10:06:51;98249.66;;;26.20;39.94
9423;BME280;4750;49.506;10.400;2022-07-04T10:09:35;98252.34;;;25.98;40.55
9423;BME280;4750;49.506;10.400;2022-07-04T10:12:27;98255.59;;;25.54;40.62
9423;BME280;4750;49.506;10.400;2022-07-04T10:15:12;98221.25;;;25.06;40.85
9423;BME280;4750;49.506;10.400;2022-07-04T10:17:56;98251.03;;;26.19;39.81
9423;BME280;4750;49.506;10.400;2022-07-04T10:20:41;98241.56;;;26.35;39.90
9423;BME280;4750;49.506;10.400;2022-07-04T10:23:25;98225.94;;;26.02;39.89
9423;BME280;4750;49.506;10.400;2022-07-04T10:26:19;98253.63;;;26.49;39.42
9423;BME280;4750;49.506;10.400;2022-07-04T10:29:04;98242.16;;;26.69;39.79
9423;BME280;4750;49.506;10.400;2022-07-04T10:31:48;98242.03;;;26.85;40.29
9423;BME280;4750;49.506;10.400;2022-07-04T10:34:39;98242.03;;;27.05;39.32
9423;BME280;4750;49.506;10.400;2022-07-04T10:37:24;98249.56;;;27.35;39.14
9423;BME280;4750;49.506;10.400;2022-07-04T10:40:08;98234.44;;;27.56;38.78
9423;BME280;4750;49.506;10.400;2022-07-04T10:42:53;98235.50;;;27.89;37.70
9423;BME280;4750;49.506;10.400;2022-07-04T10:45:37;98260.19;;;27.72;37.30
9423;BME280;4750;49.506;10.400;2022-07-04T10:48:23;98227.16;;;27.33;38.17
9423;BME280;4750;49.506;10.400;2022-07-04T10:51:07;98266.25;;;26.98;38.64
9423;BME280;4750;49.506;10.400;2022-07-04T10:54:03;98243.22;;;26.78;39.30
9423;BME280;4750;49.506;10.400;2022-07-04T10:56:53;98246.41;;;27.06;39.05
9423;BME280;4750;49.506;10.400;2022-07-04T10:59:38;98250.00;;;27.07;37.74
9423;BME280;4750;49.506;10.400;2022-07-04T11:02:24;98265.91;;;27.70;37.65
9423;BME280;4750;49.506;10.400;2022-07-04T11:05:09;98265.09;;;27.90;36.51
9423;BME280;4750;49.506;10.400;2022-07-04T11:07:59;98258.09;;;27.53;36.45
9423;BME280;4750;49.506;10.400;2022-07-04T11:10:44;98258.72;;;27.29;37.41
9423;BME280;4750;49.506;10.400;2022-07-04T11:13:28;98234.66;;;27.40;37.73
9423;BME280;4750;49.506;10.400;2022-07-04T11:16:12;98230.75;;;27.98;37.15
9423;BME280;4750;49.506;10.400;2022-07-04T11:18:56;98250.94;;;28.93;36.37
9423;BME280;4750;49.506;10.400;2022-07-04T11:21:40;98253.41;;;28.54;36.32
9423;BME280;4750;49.506;10.400;2022-07-04T11:24:25;98268.78;;;28.61;36.23
9423;BME280;4750;49.506;10.400;2022-07-04T11:27:10;98223.38;;;27.48;37.79
9423;BME280;4750;49.506;10.400;2022-07-04T11:29:55;98186.88;;;26.93;38.47
9423;BME280;4750;49.506;10.400;2022-07-04T11:32:39;98199.09;;;27.56;38.00
9423;BME280;4750;49.506;10.400;2022-07-04T11:35:23;98218.09;;;28.07;37.94
9423;BME280;4750;49.506;10.400;2022-07-04T11:38:07;98195.59;;;28.04;38.04
9423;BME280;4750;49.506;10.400;2022-07-04T11:40:51;98229.13;;;28.39;37.49
9423;BME280;4750;49.506;10.400;2022-07-04T11:43:54;98242.13;;;28.38;36.79
9423;BME280;4750;49.506;10.400;2022-07-04T11:50:00;98191.00;;;27.72;37.83
9423;BME280;4750;49.506;10.400;2022-07-04T11:52:49;98206.91;;;27.73;38.00
9423;BME280;4750;49.506;10.400;2022-07-04T11:55:37;98210.19;;;27.63;38.18
9423;BME280;4750;49.506;10.400;2022-07-04T11:58:24;98209.22;;;27.57;38.73
9423;BME280;4750;49.506;10.400;2022-07-04T12:01:09;98213.53;;;27.13;39.01
9423;BME280;4750;49.506;10.400;2022-07-04T12:03:54;98203.06;;;27.44;39.41
9423;BME280;4750;49.506;10.400;2022-07-04T12:06:38;98189.63;;;27.97;38.01
9423;BME280;4750;49.506;10.400;2022-07-04T12:09:22;98209.25;;;28.25;36.79
9423;BME280;4750;49.506;10.400;2022-07-04T12:12:06;98193.34;;;28.48;36.24
9423;BME280;4750;49.506;10.400;2022-07-04T12:15:06;98204.44;;;28.82;36.70
9423;BME280;4750;49.506;10.400;2022-07-04T12:17:54;98205.94;;;29.12;35.43
9423;BME280;4750;49.506;10.400;2022-07-04T12:20:39;98202.81;;;29.30;35.07
9423;BME280;4750;49.506;10.400;2022-07-04T12:23:23;98187.09;;;29.37;34.76
9423;BME280;4750;49.506;10.400;2022-07-04T12:26:10;98201.13;;;29.20;34.80
9423;BME280;4750;49.506;10.400;2022-07-04T12:28:54;98186.13;;;29.26;34.43
9423;BME280;4750;49.506;10.400;2022-07-04T12:31:43;98157.50;;;28.31;35.08
9423;BME280;4750;49.506;10.400;2022-07-04T12:34:29;98167.50;;;28.79;35.74
9423;BME280;4750;49.506;10.400;2022-07-04T12:37:15;98161.56;;;29.27;34.91
9423;BME280;4750;49.506;10.400;2022-07-04T12:40:07;98168.41;;;30.01;34.37
9423;BME280;4750;49.506;10.400;2022-07-04T12:42:55;98138.75;;;29.11;33.69
9423;BME280;4750;49.506;10.400;2022-07-04T12:45:55;98167.53;;;29.33;33.79
9423;BME280;4750;49.506;10.400;2022-07-04T12:48:40;98158.84;;;29.33;33.32
9423;BME280;4750;49.506;10.400;2022-07-04T12:51:30;98142.03;;;29.26;33.28
9423;BME280;4750;49.506;10.400;2022-07-04T12:54:15;98129.50;;;29.45;33.43
9423;BME280;4750;49.506;10.400;2022-07-04T12:57:10;98146.56;;;29.94;32.92
9423;BME280;4750;49.506;10.400;2022-07-04T12:59:54;98138.31;;;29.82;33.29
9423;BME280;4750;49.506;10.400;2022-07-04T13:02:38;98132.25;;;29.39;33.24
9423;BME280;4750;49.506;10.400;2022-07-04T13:05:22;98138.56;;;29.62;33.35
9423;BME280;4750;49.506;10.400;2022-07-04T13:08:07;98120.84;;;29.45;33.88
9423;BME280;4750;49.506;10.400;2022-07-04T13:10:51;98126.28;;;29.31;33.30
9423;BME280;4750;49.506;10.400;2022-07-04T13:13:57;98121.72;;;28.67;34.71
9423;BME280;4750;49.506;10.400;2022-07-04T13:16:41;98110.97;;;28.19;35.01
9423;BME280;4750;49.506;10.400;2022-07-04T13:19:25;98134.38;;;29.10;35.13
9423;BME280;4750;49.506;10.400;2022-07-04T13:22:09;98092.44;;;29.68;33.79
9423;BME280;4750;49.506;10.400;2022-07-04T13:24:53;98102.88;;;29.81;32.55
9423;BME280;4750;49.506;10.400;2022-07-04T13:27:37;98115.91;;;30.15;33.06
9423;BME280;4750;49.506;10.400;2022-07-04T13:30:21;98111.28;;;30.01;32.61
9423;BME280;4750;49.506;10.400;2022-07-04T13:33:05;98102.81;;;30.46;31.81
9423;BME280;4750;49.506;10.400;2022-07-04T13:35:49;98091.81;;;30.04;31.40
9423;BME280;4750;49.506;10.400;2022-07-04T13:38:33;98097.16;;;29.83;31.41
9423;BME280;4750;49.506;10.400;2022-07-04T13:41:17;98067.31;;;29.44;31.35
9423;BME280;4750;49.506;10.400;2022-07-04T13:44:01;98087.97;;;29.93;32.18
9423;BME280;4750;49.506;10.400;2022-07-04T13:46:46;98070.41;;;29.52;32.11
9423;BME280;4750;49.506;10.400;2022-07-04T13:49:30;98072.91;;;29.66;32.04
9423;BME280;4750;49.506;10.400;2022-07-04T13:52:14;98052.94;;;28.88;32.27
9423;BME280;4750;49.506;10.400;2022-07-04T13:54:58;98068.69;;;29.11;32.63
9423;BME280;4750;49.506;10.400;2022-07-04T13:57:42;98060.19;;;29.47;31.58
9423;BME280;4750;49.506;10.400;2022-07-04T14:00:26;98055.72;;;30.07;31.75
9423;BME280;4750;49.506;10.400;2022-07-04T14:03:12;98062.53;;;29.87;29.10
9423;BME280;4750;49.506;10.400;2022-07-04T14:05:56;98047.78;;;29.75;30.11
9423;BME280;4750;49.506;10.400;2022-07-04T14:08:40;98085.81;;;30.28;30.35
9423;BME280;4750;49.506;10.400;2022-07-04T14:11:24;98082.31;;;30.34;30.32
9423;BME280;4750;49.506;10.400;2022-07-04T14:14:08;98040.22;;;30.29;30.49
9423;BME280;4750;49.506;10.400;2022-07-04T14:16:52;98060.38;;;30.22;30.40
9423;BME280;4750;49.506;10.400;2022-07-04T14:19:36;98066.28;;;30.31;30.81
9423;BME280;4750;49.506;10.400;2022-07-04T14:22:20;98056.59;;;29.81;30.90
9423;BME280;4750;49.506;10.400;2022-07-04T14:25:06;98066.28;;;29.62;31.37
9423;BME280;4750;49.506;10.400;2022-07-04T14:27:50;98053.25;;;29.61;31.34
9423;BME280;4750;49.506;10.400;2022-07-04T14:30:34;98053.44;;;30.01;30.45
9423;BME280;4750;49.506;10.400;2022-07-04T14:33:18;98054.53;;;30.20;29.93
9423;BME280;4750;49.506;10.400;2022-07-04T14:36:03;98063.34;;;30.27;29.53
9423;BME280;4750;49.506;10.400;2022-07-04T14:38:47;98029.41;;;29.60;30.05
9423;BME280;4750;49.506;10.400;2022-07-04T14:41:31;98064.25;;;29.36;30.27
9423;BME280;4750;49.506;10.400;2022-07-04T14:44:16;98065.63;;;29.33;30.69
9423;BME280;4750;49.506;10.400;2022-07-04T14:46:59;98016.66;;;29.74;30.81
9423;BME280;4750;49.506;10.400;2022-07-04T14:49:43;98036.47;;;30.61;29.54